Time;durP1;ratioP1;P1;durP2;ratioP2;P2;SDS_P1;SDS_P2;PMS_P1;PMS_P2;Temp;Humidity;BMP_temperature;BMP_pressure;BME280_temperature;BME280_humidity;BME280_pressure;Samples;Min_cycle;Max_cycle;Signal;HPM_P1;HPM_P2
2022/01/28 00:00:29;;;;;;;4.20;2.50;;;;;;;-0.38;81.86;98026.64;104711;1272;75291;-23
2022/01/28 00:05:28;;;;;;;5.40;2.90;;;;;;;0.36;79.57;98020.77;104793;1271;74389;-23
2022/01/28 00:07:57;;;;;;;7.70;4.50;;;;;;;0.20;79.56;98012.44;104995;1271;62363;-23
2022/01/28 00:10:28;;;;;;;7.30;3.70;;;;;;;0.07;79.72;98015.69;104820;1274;61152;-24
2022/01/28 00:13:18;;;;;;;5.30;2.70;;;;;;;-0.15;80.67;98015.19;104983;1271;75968;-23
2022/01/28 00:18:40;;;;;;;3.70;2.30;;;;;;;0.08;80.98;98004.23;105118;1274;73192;-23
2022/01/28 00:36:29;;;;;;;4.30;2.80;;;;;;;0.45;79.26;98008.65;105120;1271;61899;-23
2022/01/28 00:40:29;;;;;;;5.20;3.10;;;;;;;0.13;79.42;97972.88;104727;1274;75567;-23
2022/01/28 00:42:58;;;;;;;4.50;3.10;;;;;;;-0.07;80.16;97974.14;104627;1272;76016;-24
2022/01/28 00:45:27;;;;;;;3.60;2.40;;;;;;;-0.10;80.89;97974.31;104818;1271;74630;-23
2022/01/28 00:47:55;;;;;;;4.50;3.00;;;;;;;0.37;80.23;97969.15;104741;1271;61182;-23
2022/01/28 00:50:24;;;;;;;4.20;2.50;;;;;;;0.44;79.42;97961.73;104824;1273;61133;-23
2022/01/28 00:52:53;;;;;;;4.90;3.10;;;;;;;0.30;79.82;97963.03;104865;1271;75530;-23
2022/01/28 00:55:21;;;;;;;5.50;3.70;;;;;;;0.08;80.60;97957.44;104773;1271;76032;-23
2022/01/28 00:57:49;;;;;;;6.80;3.40;;;;;;;-0.09;81.41;97951.04;104744;1271;74000;-23
2022/01/28 01:00:18;;;;;;;4.20;2.80;;;;;;;0.14;81.73;97956.79;104807;1271;61157;-23
2022/01/28 01:02:46;;;;;;;5.50;3.30;;;;;;;0.52;79.97;97948.13;104992;1273;61147;-23
2022/01/28 01:05:15;;;;;;;5.30;3.10;;;;;;;0.61;79.53;97942.88;105124;1272;75589;-23
2022/01/28 01:07:44;;;;;;;5.20;3.30;;;;;;;0.42;80.24;97946.67;105131;1271;73148;-23
2022/01/28 01:10:13;;;;;;;5.20;3.00;;;;;;;0.12;81.28;97932.98;105111;1271;74302;-23
2022/01/28 01:12:45;;;;;;;4.50;2.90;;;;;;;0.03;81.76;97936.42;105087;1271;62254;-23
2022/01/28 01:15:18;;;;;;;3.70;2.50;;;;;;;0.49;80.81;97932.96;105123;1271;61028;-23
2022/01/28 01:23:39;;;;;;;4.10;2.70;;;;;;;0.32;80.61;97931.90;104985;1271;73057;-23
2022/01/28 01:28:34;;;;;;;4.80;3.40;;;;;;;0.34;81.27;97931.75;105164;1271;61093;-24
2022/01/28 01:31:05;;;;;;;4.00;2.50;;;;;;;0.67;79.79;97933.11;104844;1274;74116;-23
2022/01/28 01:33:43;;;;;;;5.20;3.40;;;;;;;0.64;79.43;97933.59;104939;1271;74754;-24
2022/01/28 01:36:12;;;;;;;5.90;3.40;;;;;;;0.44;80.33;97936.16;105151;1271;74372;-22
2022/01/28 01:38:41;;;;;;;5.20;3.30;;;;;;;0.22;81.28;97933.11;105122;1271;61126;-22
2022/01/28 01:41:16;;;;;;;4.00;2.30;;;;;;;0.11;81.85;97933.72;105093;1271;61117;-22
2022/01/28 01:44:03;;;;;;;3.80;2.40;;;;;;;0.52;81.15;97937.69;105132;1274;75452;-22
2022/01/28 01:52:06;;;;;;;4.70;2.90;;;;;;;0.54;80.15;97933.16;105130;1271;61138;-22
2022/01/28 01:54:40;;;;;;;6.30;2.90;;;;;;;0.30;81.28;97931.14;105153;1271;61071;-22
2022/01/28 01:57:09;;;;;;;;;;;;;;;0.23;81.93;97936.83;104997;1272;73411;-22
2022/01/28 01:59:39;;;;;;;5.20;2.80;;;;;;;0.63;80.78;97932.63;104969;1271;76140;-22
2022/01/28 02:02:07;;;;;;;2.90;2.30;;;;;;;0.98;79.37;97931.09;104938;1271;74419;-23
2022/01/28 02:04:36;;;;;;;4.60;2.60;;;;;;;0.78;79.63;97916.89;104877;1271;61153;-24
2022/01/28 02:07:05;;;;;;;5.50;2.60;;;;;;;0.59;80.54;97913.59;104693;1273;61137;-24
2022/01/28 02:09:34;;;;;;;5.00;3.10;;;;;;;0.39;81.21;97915.89;104818;1271;75726;-24
2022/01/28 02:12:03;;;;;;;4.90;3.30;;;;;;;0.19;82.52;97915.16;104849;1271;73847;-24
2022/01/28 02:14:31;;;;;;;8.00;3.70;;;;;;;0.43;82.09;97912.09;105108;1271;74614;-24
2022/01/28 02:17:02;;;;;;;4.60;2.80;;;;;;;0.99;80.21;97906.44;105131;1271;61139;-22
2022/01/28 02:19:31;;;;;;;3.70;2.30;;;;;;;0.99;79.60;97898.05;105086;1271;61974;-22
2022/01/28 02:21:59;;;;;;;4.80;2.80;;;;;;;0.81;80.36;97905.80;104833;1270;75549;-23
2022/01/28 02:24:30;;;;;;;4.60;3.30;;;;;;;0.62;81.00;97906.21;104961;1271;75031;-22
2022/01/28 02:26:58;;;;;;;4.30;2.30;;;;;;;0.46;81.35;97898.60;105129;1271;74574;-23
2022/01/28 02:29:30;;;;;;;4.40;2.90;;;;;;;0.54;81.94;97893.52;105157;1271;61872;-23
2022/01/28 02:32:00;;;;;;;4.10;2.70;;;;;;;1.02;80.27;97893.27;104984;1273;61475;-23
2022/01/28 02:34:29;;;;;;;4.40;2.90;;;;;;;1.20;79.36;97898.67;104722;1271;75443;-23
2022/01/28 02:36:58;;;;;;;6.90;3.90;;;;;;;0.99;79.62;97890.38;104933;1271;75033;-23
2022/01/28 02:39:29;;;;;;;3.90;2.80;;;;;;;0.82;80.48;97896.02;104885;1271;74535;-23
2022/01/28 02:42:12;;;;;;;5.70;3.50;;;;;;;0.63;80.94;97895.73;104829;1271;61165;-22
2022/01/28 02:44:53;;;;;;;3.90;2.80;;;;;;;0.51;82.34;97891.48;105119;1271;61216;-22
2022/01/28 02:47:32;;;;;;;5.10;3.50;;;;;;;1.03;80.48;97888.05;105060;1271;75586;-22
2022/01/28 02:50:03;;;;;;;5.70;3.60;;;;;;;1.22;79.47;97888.64;105091;1271;76005;-22
2022/01/28 02:52:49;;;;;;;5.40;2.40;;;;;;;1.11;79.52;97883.98;104760;1271;74829;-23
2022/01/28 02:55:17;;;;;;;4.40;2.80;;;;;;;0.87;80.54;97885.27;104764;1271;60951;-24
2022/01/28 02:57:53;;;;;;;4.90;3.10;;;;;;;0.59;81.67;97878.53;104778;1271;61121;-25
2022/01/28 03:00:21;;;;;;;5.70;3.30;;;;;;;0.72;82.05;97885.00;104770;1273;75695;-23
2022/01/28 03:02:49;;;;;;;4.70;2.60;;;;;;;1.21;80.01;97889.90;104797;1271;76390;-23
2022/01/28 03:07:46;;;;;;;5.00;3.60;;;;;;;1.22;79.42;97891.89;104819;1271;61097;-23
2022/01/28 03:10:29;;;;;;;6.20;3.30;;;;;;;0.99;80.21;97890.70;105096;1272;61035;-22
2022/01/28 03:15:32;;;;;;;7.00;3.30;;;;;;;0.64;82.07;97880.14;105129;1271;76115;-22
2022/01/28 03:18:21;;;;;;;5.70;3.10;;;;;;;1.17;80.45;97881.59;105094;1271;72995;-22
2022/01/28 03:23:19;;;;;;;8.00;3.80;;;;;;;1.21;79.43;97876.76;105169;1271;62173;-23
2022/01/28 03:25:48;;;;;;;6.70;3.80;;;;;;;1.02;79.95;97879.28;105177;1271;75802;-23
2022/01/28 03:28:20;;;;;;;6.80;3.60;;;;;;;0.82;80.98;97870.91;105008;1271;75040;-23
2022/01/28 03:30:48;;;;;;;4.80;2.80;;;;;;;0.67;81.55;97861.84;104758;1271;74628;-23
2022/01/28 03:33:17;;;;;;;4.90;2.80;;;;;;;1.10;80.32;97856.05;104781;1271;61026;-23
2022/01/28 03:35:45;;;;;;;6.30;3.90;;;;;;;1.33;79.08;97861.14;104918;1273;61042;-23
2022/01/28 03:38:14;;;;;;;7.00;3.80;;;;;;;1.22;79.04;97857.20;105064;1273;74590;-23
2022/01/28 03:40:43;;;;;;;7.20;3.60;;;;;;;1.07;79.15;97857.77;105117;1271;76364;-22
2022/01/28 03:43:11;;;;;;;8.30;3.20;;;;;;;0.90;79.70;97862.02;105114;1271;74514;-23
2022/01/28 03:45:40;;;;;;;5.70;3.20;;;;;;;0.79;80.18;97855.52;105154;1271;61832;-22
2022/01/28 03:48:08;;;;;;;6.30;3.60;;;;;;;1.23;78.91;97855.59;105135;1270;61097;-23
2022/01/28 03:50:37;;;;;;;8.40;3.60;;;;;;;1.43;77.41;97850.05;105145;1271;75496;-23
2022/01/28 03:53:06;;;;;;;4.20;2.90;;;;;;;1.43;77.10;97854.14;105166;1271;76028;-23
2022/01/28 03:55:35;;;;;;;9.00;4.20;;;;;;;1.27;77.62;97850.39;104893;1273;74358;-22
2022/01/28 03:58:04;;;;;;;6.40;4.00;;;;;;;1.04;78.19;97843.23;104944;1271;61546;-22
2022/01/28 04:00:33;;;;;;;4.50;2.30;;;;;;;0.80;79.20;97842.80;104881;1273;61224;-23
2022/01/28 04:03:39;;;;;;;6.10;3.60;;;;;;;1.06;78.96;97833.36;104976;1271;75332;-22
2022/01/28 04:11:33;;;;;;;6.60;3.60;;;;;;;1.40;76.76;97822.41;105003;1271;61023;-23
2022/01/28 04:14:22;;;;;;;4.90;3.20;;;;;;;1.07;78.06;97821.21;105138;1271;61101;-24
2022/01/28 04:19:36;;;;;;;5.50;2.90;;;;;;;0.88;79.55;97826.28;105106;1273;75794;-26
2022/01/28 04:22:05;;;;;;;6.90;3.90;;;;;;;1.43;77.87;97813.64;104844;1271;73076;-23
2022/01/28 04:24:33;;;;;;;7.50;3.70;;;;;;;1.52;77.14;97811.50;104790;1273;61135;-23
2022/01/28 04:27:02;;;;;;;7.50;4.00;;;;;;;1.38;77.61;97809.02;104896;1271;61150;-23
2022/01/28 04:29:31;;;;;;;3.90;2.50;;;;;;;1.20;78.26;97813.36;104754;1273;75520;-23
2022/01/28 04:32:01;;;;;;;7.20;4.60;;;;;;;0.98;79.01;97815.07;104924;1273;76121;-23
2022/01/28 04:34:30;;;;;;;5.20;3.50;;;;;;;0.73;80.30;97816.73;104991;1273;73080;-23
2022/01/28 04:37:11;;;;;;;5.60;3.30;;;;;;;0.94;80.02;97822.80;104844;1271;61943;-23
2022/01/28 04:39:54;;;;;;;6.40;4.00;;;;;;;1.49;78.12;97813.80;104557;1271;220308;-23
2022/01/28 04:45:13;;;;;;;6.50;3.30;;;;;;;1.28;78.49;97811.85;104697;1273;76230;-23
2022/01/28 04:47:58;;;;;;;7.80;4.20;;;;;;;1.01;79.49;97813.02;104954;1271;72900;-23
2022/01/28 04:50:40;;;;;;;8.00;3.60;;;;;;;0.83;80.49;97806.44;104766;1271;61147;-22
2022/01/28 04:58:45;;;;;;;6.20;4.10;;;;;;;1.37;79.36;97807.17;105138;1271;74492;-23
2022/01/28 05:04:43;;;;;;;7.40;4.20;;;;;;;0.89;81.30;97802.27;104760;1277;61061;-23
2022/01/28 05:07:38;;;;;;;5.20;3.50;;;;;;;0.79;82.34;97801.00;104758;1276;61158;-23
2022/01/28 05:28:42;;;;;;;3.80;2.10;;;;;;;1.50;79.50;97788.88;104766;1275;74573;-23
2022/01/28 05:31:11;;;;;;;4.70;3.00;;;;;;;1.47;79.29;97786.55;104802;1277;61934;-23
2022/01/28 05:33:39;;;;;;;6.70;4.10;;;;;;;1.21;80.11;97788.17;104795;1277;61074;-23
2022/01/28 05:36:07;;;;;;;6.70;4.30;;;;;;;0.99;80.84;97786.30;104676;1277;74595;-22
2022/01/28 05:38:37;;;;;;;7.00;4.00;;;;;;;0.94;81.27;97788.83;104538;1277;75991;-23
2022/01/28 05:41:06;;;;;;;9.50;4.20;;;;;;;1.34;80.29;97782.04;104723;1271;74455;-23
2022/01/28 05:43:34;;;;;;;9.20;5.00;;;;;;;1.57;79.13;97788.10;104965;1271;62269;-23
2022/01/28 05:46:03;;;;;;;9.40;4.90;;;;;;;1.48;78.91;97792.61;104912;1273;61408;-21
2022/01/28 05:48:33;;;;;;;5.40;3.90;;;;;;;1.24;79.61;97796.67;104891;1271;75603;-22
2022/01/28 05:51:02;;;;;;;5.70;3.20;;;;;;;1.01;80.67;97792.67;104778;1271;74784;-23
2022/01/28 05:53:30;;;;;;;7.40;4.30;;;;;;;0.91;81.48;97791.91;104715;1271;74910;-25
2022/01/28 05:55:59;;;;;;;6.70;4.60;;;;;;;1.37;80.45;97785.44;104732;1271;61077;-24
2022/01/28 05:58:37;;;;;;;7.50;4.30;;;;;;;1.68;78.76;97780.23;104956;1271;61050;-24
2022/01/28 06:01:10;;;;;;;6.80;3.40;;;;;;;1.59;78.95;97779.80;104782;1271;75145;-24
2022/01/28 06:05:58;;;;;;;5.60;3.10;;;;;;;1.17;80.56;97782.77;101742;1310;600438;-25
2022/01/28 06:08:26;;;;;;;7.20;3.50;;;;;;;0.97;81.09;97785.86;104412;1284;61082;-24
2022/01/28 06:10:54;;;;;;;5.40;3.60;;;;;;;1.17;81.16;97783.29;104407;1284;61108;-26
2022/01/28 06:13:23;;;;;;;4.60;2.90;;;;;;;1.67;79.09;97780.32;104259;1287;73922;-25
2022/01/28 06:15:56;;;;;;;6.40;3.20;;;;;;;1.72;78.57;97779.81;104240;1287;76089;-25
2022/01/28 06:18:24;;;;;;;7.60;3.70;;;;;;;1.57;78.87;97770.31;104082;1287;71346;-23
2022/01/28 06:20:53;;;;;;;9.80;4.60;;;;;;;1.38;79.86;97769.30;104322;1284;61045;-22
2022/01/28 06:23:21;;;;;;;5.80;3.10;;;;;;;1.20;80.44;97767.02;104501;1284;62017;-23
2022/01/28 06:25:50;;;;;;;4.90;3.20;;;;;;;1.13;80.75;97769.53;104269;1283;73064;-25
2022/01/28 06:28:19;;;;;;;9.60;4.10;;;;;;;1.59;79.81;97760.63;104273;1283;76024;-23
2022/01/28 06:30:47;;;;;;;5.10;3.80;;;;;;;1.96;78.07;97760.81;104464;1284;74460;-23
2022/01/28 06:33:16;;;;;;;5.60;4.20;;;;;;;1.86;77.81;97766.05;104459;1284;61229;-23
2022/01/28 06:35:45;;;;;;;8.80;4.80;;;;;;;1.63;78.76;97755.70;104404;1284;61788;-23
2022/01/28 06:38:14;;;;;;;6.20;4.00;;;;;;;1.46;79.43;97765.02;104119;1284;73231;-22
2022/01/28 06:40:42;;;;;;;6.50;3.30;;;;;;;1.29;80.04;97760.13;103876;1283;76355;-22
2022/01/28 06:43:12;;;;;;;10.00;4.30;;;;;;;1.36;80.19;97760.02;104191;1284;74041;-23
2022/01/28 06:45:43;;;;;;;5.40;3.30;;;;;;;1.86;78.55;97758.50;103953;1284;61176;-23
2022/01/28 06:48:11;;;;;;;8.60;4.80;;;;;;;1.99;77.69;97754.60;104198;1284;61824;-23
2022/01/28 06:50:42;;;;;;;7.20;4.00;;;;;;;1.88;78.08;97753.76;104412;1283;71904;-22
2022/01/28 06:53:11;;;;;;;6.60;3.90;;;;;;;1.66;78.70;97753.34;103945;1284;74576;-23
2022/01/28 06:55:40;;;;;;;6.20;4.00;;;;;;;1.47;79.38;97753.03;104171;1284;74419;-23
2022/01/28 06:58:08;;;;;;;6.00;3.90;;;;;;;1.33;79.91;97747.91;104357;1284;62975;-23
2022/01/28 07:00:37;;;;;;;6.00;4.30;;;;;;;1.84;78.62;97740.48;104503;1284;61042;-22
2022/01/28 07:03:07;;;;;;;6.60;3.70;;;;;;;2.16;77.24;97743.55;104479;1284;73772;-25
2022/01/28 07:05:36;;;;;;;5.40;3.70;;;;;;;2.07;76.75;97739.65;103829;1283;74256;-22
2022/01/28 07:08:06;;;;;;;5.60;3.80;;;;;;;1.99;77.32;97743.83;104318;1284;74383;-25
2022/01/28 07:10:34;;;;;;;5.90;4.00;;;;;;;1.80;77.79;97750.53;104478;1284;61160;-23
2022/01/28 07:13:03;;;;;;;6.00;3.70;;;;;;;1.57;78.51;97743.79;104498;1284;61243;-23
2022/01/28 07:15:32;;;;;;;5.80;3.60;;;;;;;1.81;78.44;97741.04;104462;1284;73205;-23
2022/01/28 07:18:02;;;;;;;7.40;4.20;;;;;;;2.37;76.78;97745.02;104444;1284;73087;-23
2022/01/28 07:20:33;;;;;;;5.10;4.10;;;;;;;2.44;75.99;97737.15;104111;1284;74412;-23
2022/01/28 07:23:02;;;;;;;7.90;4.80;;;;;;;2.16;76.21;97738.21;104120;1284;61144;-23
2022/01/28 07:25:31;;;;;;;6.20;4.30;;;;;;;1.99;76.71;97743.14;104354;1283;61012;-22
2022/01/28 07:28:00;;;;;;;5.60;3.90;;;;;;;1.79;77.53;97745.30;104383;1283;74506;-24
2022/01/28 07:30:28;;;;;;;6.30;3.70;;;;;;;1.71;78.06;97747.34;104369;1284;76003;-24
2022/01/28 07:32:59;;;;;;;5.30;2.90;;;;;;;2.03;77.44;97745.72;104458;1283;73488;-23
2022/01/28 07:35:30;;;;;;;6.30;4.40;;;;;;;2.47;75.94;97746.89;104390;1284;61121;-22
2022/01/28 07:37:58;;;;;;;6.40;3.70;;;;;;;2.38;75.71;97745.59;104485;1283;61140;-23
2022/01/28 07:40:26;;;;;;;4.70;2.90;;;;;;;2.20;76.30;97745.47;104382;1283;74732;-22
2022/01/28 07:42:55;;;;;;;4.20;2.80;;;;;;;2.03;76.92;97739.95;104344;1284;75018;-22
2022/01/28 07:45:24;;;;;;;6.40;4.20;;;;;;;1.90;77.42;97745.79;104437;1284;74617;-22
2022/01/28 07:47:54;;;;;;;6.80;4.30;;;;;;;1.80;77.93;97743.66;104444;1284;63195;-23
2022/01/28 07:50:22;;;;;;;5.70;3.30;;;;;;;2.21;76.95;97744.91;104503;1283;61789;-22
2022/01/28 07:52:51;;;;;;;6.50;4.30;;;;;;;2.51;75.59;97742.70;104463;1283;74510;-22
2022/01/28 07:55:19;;;;;;;5.20;3.30;;;;;;;2.56;75.19;97743.36;104536;1284;74759;-22
2022/01/28 07:57:48;;;;;;;5.30;3.30;;;;;;;2.46;75.34;97745.23;104319;1284;73248;-22
2022/01/28 08:00:16;;;;;;;6.90;3.70;;;;;;;2.31;75.75;97739.77;104407;1284;61857;-22
2022/01/28 08:02:44;;;;;;;4.50;3.10;;;;;;;2.11;76.22;97742.32;104432;1283;61150;-22
2022/01/28 08:05:13;;;;;;;3.60;2.30;;;;;;;1.92;76.89;97733.80;104594;1280;72016;-22
2022/01/28 08:07:43;;;;;;;6.50;3.60;;;;;;;2.30;76.33;97740.71;104581;1280;75776;-22
2022/01/28 08:10:22;;;;;;;6.60;3.60;;;;;;;2.76;74.19;97740.92;104332;1280;74586;-22
2022/01/28 08:12:54;;;;;;;6.20;3.90;;;;;;;2.86;73.67;97743.37;104242;1280;61112;-25
2022/01/28 08:15:23;;;;;;;5.10;2.90;;;;;;;2.72;74.00;97736.08;104315;1280;62227;-23
2022/01/28 08:17:51;;;;;;;6.10;3.80;;;;;;;2.52;74.53;97729.73;104318;1280;74750;-23
2022/01/28 08:20:19;;;;;;;6.00;3.70;;;;;;;2.33;75.32;97736.55;104518;1278;73848;-23
2022/01/28 08:22:49;;;;;;;4.60;3.40;;;;;;;2.20;75.74;97733.61;104574;1280;74331;-23
2022/01/28 08:25:20;;;;;;;4.10;2.80;;;;;;;2.12;76.29;97730.60;104346;1283;62413;-23
2022/01/28 08:27:48;;;;;;;5.60;2.90;;;;;;;2.63;74.70;97732.58;104484;1280;61134;-23
2022/01/28 08:30:19;;;;;;;7.60;4.10;;;;;;;2.99;73.23;97733.50;104504;1280;73730;-23
2022/01/28 08:32:47;;;;;;;8.00;3.80;;;;;;;2.90;73.04;97728.99;104697;1277;74501;-23
2022/01/28 08:35:16;;;;;;;7.00;4.20;;;;;;;2.72;73.57;97725.11;104676;1277;72927;-23
2022/01/28 08:37:45;;;;;;;7.00;4.30;;;;;;;2.63;73.93;97732.10;104735;1277;61145;-24
2022/01/28 08:40:13;;;;;;;6.50;4.20;;;;;;;2.47;74.29;97725.13;104705;1277;61095;-23
2022/01/28 08:42:42;;;;;;;9.10;4.90;;;;;;;2.35;74.83;97726.67;104630;1276;73732;-23
2022/01/28 08:45:11;;;;;;;7.50;4.30;;;;;;;2.62;74.36;97731.10;104587;1277;75193;-23
2022/01/28 08:47:40;;;;;;;6.40;3.90;;;;;;;3.00;72.85;97727.95;104512;1277;71553;-23
2022/01/28 08:50:09;;;;;;;7.00;4.10;;;;;;;3.08;72.43;97728.96;104574;1277;61147;-24
2022/01/28 08:52:37;;;;;;;8.00;5.00;;;;;;;2.92;72.64;97728.15;104540;1277;61153;-23
2022/01/28 08:55:07;;;;;;;6.10;3.40;;;;;;;2.77;73.19;97723.59;104660;1277;73593;-23
2022/01/28 08:57:35;;;;;;;5.50;2.90;;;;;;;2.59;73.34;97704.83;104640;1277;75990;-23
2022/01/28 09:00:08;;;;;;;4.40;3.00;;;;;;;2.35;74.10;97705.39;104733;1277;74573;-23
2022/01/28 09:02:37;;;;;;;3.80;2.40;;;;;;;2.33;74.45;97707.59;104609;1277;61458;-24
2022/01/28 09:05:06;;;;;;;5.00;3.20;;;;;;;2.73;73.75;97707.41;104692;1277;61170;-23
2022/01/28 09:07:35;;;;;;;6.20;3.00;;;;;;;3.59;71.14;97702.66;104667;1277;73300;-23
2022/01/28 09:10:17;;;;;;;6.10;4.20;;;;;;;3.96;69.09;97695.27;104743;1277;74532;-23
2022/01/28 09:12:49;;;;;;;4.20;3.00;;;;;;;3.94;68.40;97691.74;104673;1277;74441;-23
2022/01/28 09:15:17;;;;;;;7.70;3.80;;;;;;;3.78;68.64;97689.20;104720;1277;61290;-23
2022/01/28 09:17:56;;;;;;;4.90;3.20;;;;;;;3.73;68.79;97682.70;104727;1277;61988;-23
2022/01/28 09:20:32;;;;;;;5.00;3.30;;;;;;;3.59;69.11;97686.48;105106;1272;74736;-23
2022/01/28 09:23:01;;;;;;;9.20;3.40;;;;;;;3.77;68.98;97686.52;104909;1274;75991;-23
2022/01/28 09:25:29;;;;;;;4.20;3.00;;;;;;;3.84;68.06;97671.45;105175;1271;72560;-23
2022/01/28 09:27:58;;;;;;;5.20;3.40;;;;;;;3.77;68.41;97673.52;105095;1274;61035;-23
2022/01/28 09:30:32;;;;;;;5.90;4.10;;;;;;;3.59;68.65;97666.90;105106;1271;60981;-22
2022/01/28 09:33:01;;;;;;;6.40;3.00;;;;;;;3.43;69.33;97663.95;105112;1274;73876;-23
2022/01/28 09:35:32;;;;;;;5.10;2.60;;;;;;;3.17;69.87;97655.42;104942;1274;76014;-24
2022/01/28 09:38:00;;;;;;;5.60;3.40;;;;;;;2.91;70.85;97657.81;104999;1271;73376;-24
2022/01/28 09:40:30;;;;;;;4.10;2.70;;;;;;;2.83;71.26;97654.74;104899;1271;61244;-24
2022/01/28 09:43:00;;;;;;;4.40;2.60;;;;;;;2.70;71.69;97642.98;104835;1274;61213;-23
2022/01/28 09:45:29;;;;;;;4.50;3.10;;;;;;;2.90;72.11;97647.23;104667;1274;73915;-24
2022/01/28 09:47:59;;;;;;;4.20;3.60;;;;;;;3.21;71.37;97645.02;104845;1271;74964;-24
2022/01/28 09:50:30;;;;;;;3.70;2.70;;;;;;;3.06;72.48;97639.56;104872;1271;72058;-24
2022/01/28 09:52:59;;;;;;;6.60;3.10;;;;;;;2.86;73.21;97636.37;104821;1271;61203;-25
2022/01/28 09:55:27;;;;;;;5.90;3.20;;;;;;;2.59;74.48;97634.89;104836;1274;62049;-24
2022/01/28 09:57:59;;;;;;;6.30;3.80;;;;;;;2.32;75.34;97625.99;105187;1273;73587;-23
2022/01/28 10:00:29;;;;;;;6.40;3.20;;;;;;;2.11;76.55;97615.27;104826;1274;74966;-23
2022/01/28 10:03:00;;;;;;;4.30;3.00;;;;;;;2.31;76.16;97609.46;104838;1274;73145;-24
2022/01/28 10:05:31;;;;;;;3.70;2.30;;;;;;;2.76;74.50;97608.09;104873;1274;61226;-24
2022/01/28 10:08:15;;;;;;;6.20;3.70;;;;;;;2.76;74.09;97606.21;104724;1274;62044;-24
2022/01/28 10:11:07;;;;;;;4.60;2.40;;;;;;;2.72;73.78;97601.05;104749;1274;75378;-24
2022/01/28 10:13:42;;;;;;;5.30;2.80;;;;;;;2.48;74.36;97594.89;104785;1274;74620;-24
2022/01/28 10:16:11;;;;;;;4.40;2.80;;;;;;;2.37;74.54;97592.55;104799;1274;74407;-24
2022/01/28 10:18:43;;;;;;;4.10;2.80;;;;;;;2.23;75.27;97597.63;105094;1273;61127;-24
2022/01/28 10:21:38;;;;;;;4.40;2.50;;;;;;;2.41;75.21;97589.52;105090;1273;61035;-24
2022/01/28 10:24:09;;;;;;;5.40;3.50;;;;;;;3.06;73.27;97590.04;105032;1274;75581;-24
2022/01/28 10:26:42;;;;;;;6.10;3.40;;;;;;;3.11;72.77;97592.23;104859;1274;74749;-24
2022/01/28 10:29:14;;;;;;;7.40;3.30;;;;;;;2.95;72.76;97575.23;104724;1274;73446;-24
2022/01/28 10:31:43;;;;;;;8.30;3.90;;;;;;;2.63;73.82;97568.29;104768;1273;61149;-24
2022/01/28 10:34:20;;;;;;;3.90;2.50;;;;;;;2.35;75.02;97575.58;104832;1272;62328;-23
2022/01/28 10:36:49;;;;;;;8.00;2.60;;;;;;;2.16;76.08;97576.73;105068;1274;73237;-24
2022/01/28 10:39:20;;;;;;;7.40;3.30;;;;;;;2.44;76.09;97572.75;104817;1274;75815;-24
2022/01/28 10:41:49;;;;;;;8.40;3.70;;;;;;;2.79;74.61;97571.95;104741;1274;74905;-24
2022/01/28 10:44:17;;;;;;;6.70;4.10;;;;;;;2.70;75.02;97569.18;104892;1271;61151;-23
2022/01/28 10:46:51;;;;;;;5.80;2.90;;;;;;;2.52;75.38;97568.18;104819;1274;62031;-24
2022/01/28 10:49:20;;;;;;;4.60;2.90;;;;;;;2.30;76.21;97569.05;104864;1274;76100;-24
2022/01/28 10:51:51;;;;;;;4.10;2.30;;;;;;;2.18;76.45;97563.12;104711;1274;75886;-22
2022/01/28 10:54:23;;;;;;;2.90;2.10;;;;;;;2.06;76.83;97556.36;104994;1274;74155;-23
2022/01/28 10:56:55;;;;;;;5.50;2.40;;;;;;;2.47;75.80;97548.00;104819;1274;61129;-22
2022/01/28 10:59:33;;;;;;;5.80;3.40;;;;;;;2.73;74.37;97538.77;104643;1274;61634;-23
2022/01/28 11:02:02;;;;;;;3.10;2.20;;;;;;;2.73;74.50;97547.83;104655;1273;74675;-23
2022/01/28 11:04:31;;;;;;;4.40;2.80;;;;;;;2.65;74.96;97547.06;104914;1274;74951;-23
2022/01/28 11:07:00;;;;;;;3.50;2.40;;;;;;;2.42;76.31;97546.30;104807;1271;73018;-23
2022/01/28 11:09:30;;;;;;;4.60;2.30;;;;;;;2.21;76.74;97539.04;104732;1274;61365;-23
2022/01/28 11:12:00;;;;;;;3.10;2.00;;;;;;;2.10;78.07;97545.47;104784;1271;61455;-23
2022/01/28 11:14:29;;;;;;;4.10;2.10;;;;;;;2.61;76.53;97543.27;104844;1271;74642;-24
2022/01/28 11:16:58;;;;;;;1.80;1.30;;;;;;;2.72;75.64;97545.72;104913;1274;75797;-23
2022/01/28 11:19:28;;;;;;;2.20;1.80;;;;;;;2.57;76.01;97534.30;104835;1271;74851;-22
2022/01/28 11:22:24;;;;;;;3.10;2.10;;;;;;;2.38;76.67;97537.70;104894;1271;61185;-23
2022/01/28 11:25:00;;;;;;;5.50;1.90;;;;;;;2.03;77.88;97539.69;104818;1274;62099;-23
2022/01/28 11:27:37;;;;;;;2.70;1.60;;;;;;;1.96;78.58;97532.11;104705;1271;74675;-23
2022/01/28 11:30:28;;;;;;;3.00;1.80;;;;;;;2.44;77.46;97535.25;104626;1274;74455;-23
2022/01/28 11:33:01;;;;;;;2.30;1.50;;;;;;;2.51;77.06;97532.14;104880;1274;71661;-23
2022/01/28 11:35:32;;;;;;;1.30;1.20;;;;;;;2.41;77.37;97538.15;105075;1274;62396;-23
2022/01/28 11:38:04;;;;;;;1.30;1.20;;;;;;;2.17;77.71;97531.11;104917;1272;62255;-23
2022/01/28 11:40:44;;;;;;;2.30;1.50;;;;;;;1.91;78.73;97533.80;104790;1271;74665;-22
2022/01/28 11:43:16;;;;;;;5.10;1.80;;;;;;;1.86;79.65;97533.45;104600;1274;75295;-25
2022/01/28 11:45:45;;;;;;;1.80;1.40;;;;;;;2.33;78.33;97526.42;104605;1271;74455;-22
2022/01/28 11:48:13;;;;;;;3.00;1.60;;;;;;;2.43;77.41;97533.23;104780;1272;61145;-22
2022/01/28 11:50:49;;;;;;;2.10;1.30;;;;;;;2.15;78.06;97529.88;104828;1271;61126;-22
2022/01/28 11:53:21;;;;;;;2.50;1.70;;;;;;;1.96;78.65;97529.15;104708;1271;75610;-22
2022/01/28 11:56:01;;;;;;;3.40;2.10;;;;;;;1.75;79.70;97528.23;104996;1274;72385;-22
2022/01/28 11:58:52;;;;;;;1.80;1.20;;;;;;;1.61;80.50;97527.16;104864;1274;72235;-22
2022/01/28 12:01:36;;;;;;;3.60;2.10;;;;;;;2.08;79.04;97520.48;104792;1274;61191;-21
2022/01/28 12:04:26;;;;;;;2.70;1.60;;;;;;;2.27;78.04;97523.06;105017;1272;61087;-22
2022/01/28 12:07:05;;;;;;;3.50;1.50;;;;;;;2.22;78.12;97525.29;104868;1274;75706;-23
2022/01/28 12:09:34;;;;;;;1.90;1.50;;;;;;;1.91;79.10;97525.90;104828;1273;76047;-23
2022/01/28 12:12:04;;;;;;;1.30;1.00;;;;;;;1.67;79.97;97519.52;104924;1274;74360;-23
2022/01/28 12:15:16;;;;;;;2.60;1.60;;;;;;;1.68;80.79;97518.80;104687;1274;61809;-23
2022/01/28 12:17:49;;;;;;;1.20;1.10;;;;;;;2.24;78.62;97518.83;105130;1274;61061;-22
2022/01/28 12:20:38;;;;;;;2.00;1.50;;;;;;;2.17;78.39;97511.44;104607;1274;75803;-23
2022/01/28 12:23:08;;;;;;;2.20;1.20;;;;;;;2.01;78.88;97517.23;104744;1274;74987;-23
2022/01/28 12:25:36;;;;;;;2.40;1.50;;;;;;;1.79;79.85;97512.69;104747;1273;74619;-22
2022/01/28 12:28:32;;;;;;;2.30;1.30;;;;;;;1.50;81.05;97504.45;104863;1273;61147;-23
2022/01/28 12:31:06;;;;;;;2.00;1.20;;;;;;;1.65;81.30;97512.16;105076;1274;61826;-23
2022/01/28 12:33:38;;;;;;;2.80;1.60;;;;;;;2.02;79.65;97510.80;104691;1273;75544;-23
2022/01/28 12:36:15;;;;;;;2.40;1.30;;;;;;;2.09;79.15;97513.02;104677;1273;76004;-23
2022/01/28 12:41:49;;;;;;;1.70;1.00;;;;;;;1.49;81.29;97514.77;104944;1274;61121;-24
2022/01/28 12:44:17;;;;;;;1.30;0.90;;;;;;;1.32;81.81;97516.15;104874;1274;61160;-23
2022/01/28 12:46:53;;;;;;;2.80;1.50;;;;;;;1.52;81.50;97510.80;104884;1272;75683;-23
2022/01/28 12:49:26;;;;;;;3.40;1.60;;;;;;;1.86;79.96;97513.05;105048;1274;75040;-23
2022/01/28 12:51:56;;;;;;;2.10;1.20;;;;;;;1.80;79.87;97511.84;104886;1274;73518;-24
2022/01/28 12:54:32;;;;;;;1.30;0.80;;;;;;;1.58;80.65;97514.34;104851;1274;61188;-23
2022/01/28 12:57:01;;;;;;;1.80;1.10;;;;;;;1.35;81.32;97510.44;104882;1273;61025;-23
2022/01/28 12:59:30;;;;;;;1.40;1.00;;;;;;;1.18;82.40;97515.20;104919;1272;75774;-23
2022/01/28 13:01:59;;;;;;;2.20;1.60;;;;;;;1.18;82.82;97514.34;104767;1274;72210;-23
2022/01/28 13:04:51;;;;;;;1.10;0.70;;;;;;;1.69;80.83;97515.66;104959;1274;74426;-23
2022/01/28 13:09:54;;;;;;;2.00;1.10;;;;;;;1.55;80.66;97514.52;105114;1274;61049;-22
2022/01/28 13:12:26;;;;;;;3.50;1.40;;;;;;;1.34;81.65;97517.70;104948;1272;75549;-22
2022/01/28 13:14:55;;;;;;;2.10;1.00;;;;;;;1.14;82.26;97522.77;104583;1274;75773;-22
2022/01/28 13:17:24;;;;;;;1.70;1.30;;;;;;;1.02;82.96;97521.88;104729;1274;74733;-22
2022/01/28 13:19:57;;;;;;;1.40;1.10;;;;;;;1.44;81.87;97527.29;104985;1273;61711;-22
2022/01/28 13:22:27;;;;;;;1.90;1.20;;;;;;;1.63;80.82;97525.63;104810;1274;61161;-22
2022/01/28 13:24:56;;;;;;;1.70;1.00;;;;;;;1.55;80.70;97524.27;104615;1274;74791;-22